Time;durP1;ratioP1;P1;durP2;ratioP2;P2;SDS_P1;SDS_P2;PMS_P1;PMS_P2;Temp;Humidity;BMP_temperature;BMP_pressure;BME280_temperature;BME280_humidity;BME280_pressure;Samples;Min_cycle;Max_cycle;Signal;HPM_P1;HPM_P2
2022/08/29 00:02:09;;;;;;;20.23;4.60;;;;;;;23.86;45.90;100680.09;5030107;28;20054;-83
2022/08/29 00:04:35;;;;;;;25.67;3.83;;;;;;;23.80;45.91;100680.00;5031064;28;20123;-82
2022/08/29 00:07:00;;;;;;;22.55;4.25;;;;;;;23.77;45.80;100664.06;5017463;28;20204;-82
2022/08/29 00:09:27;;;;;;;23.42;3.90;;;;;;;23.93;45.35;100683.53;5032031;28;20044;-82
2022/08/29 00:11:54;;;;;;;31.58;4.07;;;;;;;23.77;45.71;100675.03;5036264;28;20049;-84
2022/08/29 00:14:23;;;;;;;23.42;4.55;;;;;;;23.82;45.78;100670.72;5040774;28;21370;-84
2022/08/29 00:16:50;;;;;;;23.27;4.25;;;;;;;23.78;45.30;100686.84;5046249;28;20057;-84
2022/08/29 00:19:16;;;;;;;22.15;4.53;;;;;;;23.87;45.97;100685.34;5035810;28;20060;-83
2022/08/29 00:21:41;;;;;;;25.10;4.25;;;;;;;23.80;46.27;100681.94;5033183;28;20033;-84
2022/08/29 00:24:07;;;;;;;23.88;4.18;;;;;;;23.82;46.17;100687.19;5016446;28;20048;-83
2022/08/29 00:26:34;;;;;;;13.90;3.65;;;;;;;23.84;46.09;100683.13;5023526;28;20192;-83
2022/08/29 00:29:00;;;;;;;20.33;3.83;;;;;;;23.85;46.60;100697.66;5029181;28;20501;-82
2022/08/29 00:31:26;;;;;;;28.27;4.75;;;;;;;23.75;46.92;100690.91;5053081;28;20048;-82
2022/08/29 00:33:59;;;;;;;23.63;4.57;;;;;;;23.70;46.96;100684.47;5022358;28;20044;-82
2022/08/29 00:36:32;;;;;;;21.58;3.97;;;;;;;23.77;46.87;100702.47;5053854;28;20041;-82
2022/08/29 00:38:59;;;;;;;17.08;4.10;;;;;;;23.73;46.77;100698.53;5048633;28;20565;-82
2022/08/29 00:41:28;;;;;;;23.23;3.75;;;;;;;23.65;46.94;100687.97;5035759;28;20049;-81
2022/08/29 00:43:54;;;;;;;16.70;3.83;;;;;;;23.72;47.13;100701.53;5036772;28;20052;-82
2022/08/29 00:46:42;;;;;;;24.52;4.45;;;;;;;23.64;47.63;100691.78;5035416;28;20051;-83
2022/08/29 00:49:24;;;;;;;20.73;4.53;;;;;;;23.41;48.34;100664.47;5054031;28;20048;-82
2022/08/29 00:51:56;;;;;;;25.35;4.15;;;;;;;23.39;49.14;100673.78;5033820;28;20063;-82
2022/08/29 00:54:22;;;;;;;21.45;4.30;;;;;;;23.53;49.58;100695.41;5028329;28;20101;-81
2022/08/29 00:56:50;;;;;;;32.10;4.60;;;;;;;23.49;49.06;100694.25;5050322;28;20041;-84
2022/08/29 00:59:19;;;;;;;21.08;4.10;;;;;;;23.53;49.02;100698.16;5031443;28;20056;-81
2022/08/29 01:01:45;;;;;;;22.67;4.43;;;;;;;23.47;49.28;100693.66;5030619;28;20126;-82
2022/08/29 01:04:12;;;;;;;24.02;4.25;;;;;;;23.43;49.57;100687.81;5035171;28;20044;-82
2022/08/29 01:06:38;;;;;;;20.40;4.32;;;;;;;23.35;49.67;100677.25;5018682;28;20048;-83
2022/08/29 01:09:04;;;;;;;20.75;4.13;;;;;;;23.21;50.26;100670.41;5030496;28;20116;-83
2022/08/29 01:14:16;;;;;;;17.50;4.00;;;;;;;23.20;50.23;100686.00;5025490;28;20237;-82
2022/08/29 01:16:42;;;;;;;22.90;4.07;;;;;;;23.07;49.96;100670.69;5045527;28;20049;-81
2022/08/29 01:19:36;;;;;;;19.98;4.22;;;;;;;23.09;50.03;100667.72;5031825;28;20397;-83
2022/08/29 01:22:08;;;;;;;19.90;4.80;;;;;;;23.06;50.33;100668.16;5036479;28;20048;-82
2022/08/29 01:24:41;;;;;;;26.00;4.50;;;;;;;23.01;50.40;100679.03;5014831;28;20037;-81
2022/08/29 01:27:07;;;;;;;20.80;4.45;;;;;;;23.01;50.66;100676.28;5013460;28;20064;-82
2022/08/29 01:29:33;;;;;;;29.92;4.93;;;;;;;23.00;50.57;100671.91;4998056;28;20041;-82
2022/08/29 01:32:02;;;;;;;21.33;5.00;;;;;;;23.00;50.87;100675.47;5023102;28;20037;-81
2022/08/29 01:34:31;;;;;;;21.48;5.10;;;;;;;23.06;51.90;100679.13;5012875;28;20060;-82
2022/08/29 01:37:00;;;;;;;22.73;4.60;;;;;;;22.94;52.57;100662.69;5033151;28;20052;-82
2022/08/29 01:39:30;;;;;;;21.85;4.90;;;;;;;22.96;53.94;100675.09;5015817;28;20048;-83
2022/08/29 01:41:57;;;;;;;31.40;5.40;;;;;;;22.95;54.30;100664.38;5024709;28;20139;-82
2022/08/29 01:44:24;;;;;;;22.00;4.85;;;;;;;22.92;54.61;100660.22;5019895;28;20048;-83
2022/08/29 01:46:55;;;;;;;14.70;5.03;;;;;;;22.87;55.50;100660.09;5018096;28;20052;-83
2022/08/29 01:49:24;;;;;;;20.08;5.65;;;;;;;22.86;56.56;100674.88;5025788;28;20036;-83
2022/08/29 01:51:51;;;;;;;24.27;5.55;;;;;;;22.75;57.12;100654.63;5041774;28;20037;-82
2022/08/29 01:54:20;;;;;;;28.73;6.00;;;;;;;22.81;57.25;100672.03;5033413;28;20044;-83
2022/08/29 01:56:49;;;;;;;27.50;5.60;;;;;;;22.58;57.83;100652.91;5014356;28;20029;-84
2022/08/29 01:59:18;;;;;;;22.98;6.07;;;;;;;22.46;58.01;100651.00;5027385;28;20106;-83
2022/08/29 02:01:53;;;;;;;23.65;5.93;;;;;;;22.53;58.31;100665.41;5018917;28;20195;-85
2022/08/29 02:04:26;;;;;;;22.37;5.93;;;;;;;22.38;58.90;100653.25;5012937;28;20041;-84
2022/08/29 02:06:55;;;;;;;27.58;6.78;;;;;;;22.22;59.50;100652.06;5027141;28;20306;-84
2022/08/29 02:09:25;;;;;;;24.98;6.97;;;;;;;22.30;59.90;100669.00;4997271;28;20128;-84
2022/08/29 02:11:51;;;;;;;33.08;7.75;;;;;;;22.13;58.96;100633.25;5001235;28;20045;-84
2022/08/29 02:14:19;;;;;;;29.83;7.70;;;;;;;22.09;58.91;100636.69;5015194;28;20140;-85
2022/08/29 02:16:44;;;;;;;23.95;8.13;;;;;;;22.27;58.31;100647.56;5041744;28;20072;-82
2022/08/29 02:19:11;;;;;;;26.73;8.77;;;;;;;22.24;58.73;100647.19;5050040;28;20492;-85
2022/08/29 02:21:37;;;;;;;28.05;7.82;;;;;;;22.30;58.36;100657.22;4996700;28;20037;-83
2022/08/29 02:24:04;;;;;;;30.42;8.30;;;;;;;22.20;58.88;100660.53;5030407;28;20047;-83
2022/08/29 02:26:30;;;;;;;30.35;8.10;;;;;;;22.16;59.38;100655.75;5049042;28;20037;-83
2022/08/29 02:29:08;;;;;;;27.98;7.18;;;;;;;22.12;59.60;100658.97;5021895;28;20111;-82
2022/08/29 02:31:35;;;;;;;22.88;6.93;;;;;;;22.03;60.16;100668.59;5028258;28;20047;-82
2022/08/29 02:34:02;;;;;;;23.10;6.50;;;;;;;21.91;60.30;100651.31;5030108;28;20041;-83
2022/08/29 02:36:29;;;;;;;27.90;6.45;;;;;;;21.99;59.81;100664.66;4997284;28;20381;-82
2022/08/29 02:38:55;;;;;;;27.73;6.22;;;;;;;21.90;59.59;100641.44;5022893;28;20136;-82
2022/08/29 02:41:22;;;;;;;29.00;5.90;;;;;;;21.99;58.86;100658.38;5000650;28;20084;-82
2022/08/29 02:43:48;;;;;;;24.70;5.85;;;;;;;21.96;58.70;100664.28;5051479;28;20120;-84
2022/08/29 02:46:16;;;;;;;21.40;5.80;;;;;;;21.84;58.59;100664.28;5048201;28;20573;-86
2022/08/29 02:48:44;;;;;;;30.10;5.30;;;;;;;21.77;58.51;100667.13;5044203;28;20049;-81
2022/08/29 02:51:12;;;;;;;23.77;5.88;;;;;;;21.69;58.56;100651.88;5037809;28;20095;-82
2022/08/29 02:53:37;;;;;;;23.80;5.95;;;;;;;21.75;58.27;100660.22;5047941;28;20057;-82
2022/08/29 02:56:03;;;;;;;24.45;5.60;;;;;;;21.79;58.09;100675.09;5027071;28;20041;-82
2022/08/29 02:58:29;;;;;;;23.55;5.78;;;;;;;21.72;57.89;100669.72;5022764;28;20527;-82
2022/08/29 03:00:55;;;;;;;30.02;7.00;;;;;;;21.71;57.96;100665.34;4996524;28;20118;-82
2022/08/29 03:03:21;;;;;;;18.75;5.68;;;;;;;21.53;58.13;100671.69;5044241;28;20123;-82
2022/08/29 03:05:47;;;;;;;28.48;5.47;;;;;;;21.44;58.14;100657.50;5022216;28;20064;-82
2022/08/29 03:08:13;;;;;;;26.65;5.32;;;;;;;21.41;57.67;100666.19;5029273;28;20071;-82
2022/08/29 03:10:41;;;;;;;19.83;5.55;;;;;;;21.43;57.94;100672.28;5050675;28;20115;-83
2022/08/29 03:13:09;;;;;;;30.80;5.95;;;;;;;21.58;57.94;100690.97;5031905;28;20041;-82
2022/08/29 03:15:35;;;;;;;32.38;5.50;;;;;;;21.49;58.49;100675.97;5032241;28;20132;-83
2022/08/29 03:18:01;;;;;;;23.58;6.03;;;;;;;21.64;58.42;100681.03;5023125;28;20489;-83
2022/08/29 03:20:28;;;;;;;32.63;6.05;;;;;;;21.56;58.05;100676.69;5008714;28;20046;-83
2022/08/29 03:22:56;;;;;;;26.02;5.32;;;;;;;21.62;57.76;100692.19;5044920;28;20063;-83
2022/08/29 03:25:21;;;;;;;29.17;5.95;;;;;;;21.66;57.59;100682.44;5049163;28;20128;-83
2022/08/29 03:27:48;;;;;;;26.00;5.85;;;;;;;21.67;57.40;100689.59;5028235;28;20037;-82
2022/08/29 03:30:15;;;;;;;34.83;5.40;;;;;;;21.59;57.37;100676.25;5048449;28;20098;-83
2022/08/29 03:32:41;;;;;;;26.27;5.38;;;;;;;21.66;56.69;100676.97;5027545;28;20178;-82
2022/08/29 03:35:07;;;;;;;28.48;5.60;;;;;;;21.71;56.71;100679.03;5046685;28;20455;-82
2022/08/29 03:37:39;;;;;;;29.48;5.55;;;;;;;21.74;56.36;100688.66;5014472;28;20091;-84
2022/08/29 03:40:06;;;;;;;27.02;5.03;;;;;;;21.80;56.35;100698.69;5045125;28;20033;-85
2022/08/29 03:42:32;;;;;;;34.53;5.82;;;;;;;21.75;56.43;100687.56;5023672;28;20132;-83
2022/08/29 03:44:59;;;;;;;28.65;6.07;;;;;;;21.76;56.17;100678.31;5019641;28;20037;-83
2022/08/29 03:47:25;;;;;;;32.00;5.93;;;;;;;21.87;56.06;100705.72;5026846;28;20143;-84
2022/08/29 03:49:51;;;;;;;25.95;5.50;;;;;;;21.84;56.52;100706.16;5047692;28;20504;-83
2022/08/29 03:52:18;;;;;;;24.92;5.40;;;;;;;21.96;56.08;100722.63;5024081;28;20041;-82
2022/08/29 03:54:45;;;;;;;22.27;5.22;;;;;;;21.94;55.78;100708.34;5025184;28;20045;-84
2022/08/29 03:57:11;;;;;;;32.78;5.75;;;;;;;21.88;55.44;100690.94;5047075;28;20097;-84
2022/08/29 03:59:38;;;;;;;28.75;5.28;;;;;;;21.99;55.43;100689.31;5047166;28;20041;-82
2022/08/29 04:02:05;;;;;;;27.00;5.45;;;;;;;21.99;55.03;100703.00;5031195;28;20435;-83
2022/08/29 04:07:19;;;;;;;30.95;5.88;;;;;;;21.99;54.83;100708.47;5047408;28;20433;-83
2022/08/29 04:09:44;;;;;;;25.27;5.95;;;;;;;22.06;54.38;100702.88;5015629;28;20402;-83
2022/08/29 04:12:14;;;;;;;24.88;5.30;;;;;;;21.94;53.87;100683.72;5012773;28;20071;-83
2022/08/29 04:14:39;;;;;;;27.27;6.07;;;;;;;22.13;53.68;100701.69;5032295;28;20060;-83
2022/08/29 04:17:08;;;;;;;26.52;5.15;;;;;;;22.05;53.69;100699.28;5014058;28;20048;-79
2022/08/29 04:19:34;;;;;;;27.30;5.72;;;;;;;22.19;53.80;100707.28;5027029;28;20568;-84
2022/08/29 04:22:04;;;;;;;30.20;5.78;;;;;;;22.30;53.52;100717.47;5009578;28;20071;-84
2022/08/29 04:24:30;;;;;;;35.08;5.80;;;;;;;22.40;53.18;100719.59;5031120;28;20497;-82
2022/08/29 04:26:56;;;;;;;25.50;5.25;;;;;;;22.56;52.95;100721.63;5007152;28;20057;-82
2022/08/29 04:29:23;;;;;;;27.42;6.15;;;;;;;22.61;52.95;100720.91;5030151;28;20036;-83
2022/08/29 04:31:49;;;;;;;30.58;5.78;;;;;;;22.64;52.66;100709.47;5010340;28;20551;-84
2022/08/29 04:34:14;;;;;;;32.88;6.10;;;;;;;22.45;53.11;100698.66;5020501;28;20041;-82
2022/08/29 04:36:47;;;;;;;37.90;6.57;;;;;;;22.69;52.62;100713.16;5056587;28;20041;-85
2022/08/29 04:39:12;;;;;;;30.42;6.07;;;;;;;22.91;52.81;100728.97;5044887;28;20087;-82
2022/08/29 04:41:38;;;;;;;33.40;6.53;;;;;;;22.97;52.63;100717.88;5010289;28;20098;-84
2022/08/29 04:44:06;;;;;;;39.65;7.03;;;;;;;23.05;52.41;100721.34;5025196;28;20507;-86
2022/08/29 04:46:38;;;;;;;26.38;6.50;;;;;;;23.21;52.50;100722.50;5004193;28;20037;-85
2022/08/29 04:49:03;;;;;;;27.15;6.00;;;;;;;23.28;52.33;100721.28;5047715;28;20095;-86
2022/08/29 04:51:39;;;;;;;31.35;7.13;;;;;;;23.48;52.29;100720.00;5024061;28;20048;-84
2022/08/29 04:54:05;;;;;;;33.15;7.15;;;;;;;23.64;51.68;100724.72;5024764;28;20063;-83
2022/08/29 04:56:31;;;;;;;36.00;7.60;;;;;;;23.63;51.98;100714.81;5030148;28;20037;-83
2022/08/29 04:58:58;;;;;;;42.92;8.70;;;;;;;23.79;51.81;100733.25;5033795;28;20527;-82
2022/08/29 05:01:24;;;;;;;40.30;7.85;;;;;;;23.80;51.89;100715.69;5046893;28;20044;-83
2022/08/29 05:03:56;;;;;;;42.47;7.85;;;;;;;23.93;52.00;100727.47;5009587;28;20037;-84
2022/08/29 05:06:22;;;;;;;45.63;8.05;;;;;;;24.10;51.85;100733.78;5015135;28;20056;-83
2022/08/29 05:08:48;;;;;;;38.67;8.15;;;;;;;24.28;51.92;100734.63;5012979;28;20037;-86
2022/08/29 05:11:20;;;;;;;38.38;7.88;;;;;;;24.30;52.31;100713.22;5018522;28;20044;-83
2022/08/29 05:13:46;;;;;;;45.30;7.88;;;;;;;24.56;51.99;100731.81;5051570;28;20097;-84
2022/08/29 05:16:15;;;;;;;46.90;9.07;;;;;;;24.66;51.72;100705.56;5052948;28;20194;-87
2022/08/29 05:18:47;;;;;;;39.85;7.80;;;;;;;24.98;51.10;100723.03;5031692;28;20419;-83
2022/08/29 05:21:30;;;;;;;40.97;7.45;;;;;;;25.20;50.09;100717.56;5036896;28;20140;-82
2022/08/29 05:23:56;;;;;;;37.47;8.90;;;;;;;25.54;49.55;100728.38;5022516;28;20041;-82
2022/08/29 05:26:24;;;;;;;38.55;8.63;;;;;;;25.63;49.56;100715.81;5034103;28;20574;-82
2022/08/29 05:28:50;;;;;;;29.73;8.15;;;;;;;25.97;48.86;100740.44;5011245;28;20120;-84
2022/08/29 05:31:22;;;;;;;38.47;9.45;;;;;;;26.02;48.81;100736.88;5016396;28;20124;-83
2022/08/29 05:33:47;;;;;;;42.28;9.88;;;;;;;26.33;48.29;100733.28;5051344;28;20102;-88
2022/08/29 05:36:13;;;;;;;45.05;9.50;;;;;;;26.61;48.00;100742.31;5015267;28;20050;-84
2022/08/29 05:38:43;;;;;;;42.22;10.52;;;;;;;26.60;47.29;100721.38;5051444;28;20572;-83
2022/08/29 05:41:08;;;;;;;38.67;9.05;;;;;;;26.64;47.12;100728.00;5030635;28;20087;-84
2022/08/29 05:43:34;;;;;;;45.00;9.40;;;;;;;26.83;46.61;100741.34;5018620;28;20041;-83
2022/08/29 05:46:04;;;;;;;40.88;8.68;;;;;;;27.08;45.61;100752.50;5025447;28;20124;-83
2022/08/29 05:48:40;;;;;;;45.30;9.02;;;;;;;27.15;45.31;100736.53;5017488;28;20033;-83
2022/08/29 05:51:08;;;;;;;42.80;8.98;;;;;;;27.38;44.29;100739.97;5045483;28;20041;-83
2022/08/29 05:53:35;;;;;;;47.28;9.10;;;;;;;27.72;43.88;100750.53;5029674;28;20047;-83
2022/08/29 05:56:02;;;;;;;44.65;10.18;;;;;;;27.90;42.19;100746.44;5017582;28;20511;-83
2022/08/29 05:58:28;;;;;;;39.97;9.80;;;;;;;27.97;42.71;100745.06;5041305;28;20094;-83
2022/08/29 06:00:57;;;;;;;37.22;9.82;;;;;;;28.26;42.20;100755.59;5034142;28;20029;-84
2022/08/29 06:03:22;;;;;;;42.78;10.32;;;;;;;28.50;42.31;100761.41;5034703;28;20473;-84
2022/08/29 06:05:53;;;;;;;52.15;10.38;;;;;;;28.48;41.20;100749.78;5020525;28;20037;-87
2022/08/29 06:08:19;;;;;;;43.35;11.30;;;;;;;28.73;41.06;100748.94;5022626;28;20049;-84
2022/08/29 06:10:50;;;;;;;45.85;11.10;;;;;;;28.91;39.99;100749.41;5026337;28;20069;-86
2022/08/29 06:13:15;;;;;;;43.28;10.15;;;;;;;29.05;39.81;100747.72;5030013;28;21575;-87
2022/08/29 06:15:45;;;;;;;57.10;11.35;;;;;;;29.36;39.81;100753.13;5034237;28;20103;-83
2022/08/29 06:18:11;;;;;;;44.92;11.00;;;;;;;29.53;39.59;100742.53;5041752;28;20080;-84
2022/08/29 06:20:37;;;;;;;52.15;11.95;;;;;;;29.92;38.52;100754.78;5035458;28;20045;-84
2022/08/29 06:23:03;;;;;;;45.25;13.77;;;;;;;29.98;38.76;100742.56;5050073;28;20095;-84
2022/08/29 06:25:29;;;;;;;55.35;14.60;;;;;;;30.26;38.42;100746.50;5016853;28;20464;-85
2022/08/29 06:27:55;;;;;;;46.80;12.10;;;;;;;30.62;37.00;100751.69;5043792;28;20108;-86
2022/08/29 06:30:20;;;;;;;46.55;12.23;;;;;;;30.91;36.41;100738.66;5014303;28;20515;-86
2022/08/29 06:32:47;;;;;;;52.88;13.90;;;;;;;31.17;36.43;100729.19;5033651;28;20048;-85
2022/08/29 06:35:13;;;;;;;52.78;12.65;;;;;;;31.47;35.68;100750.19;5052994;28;20037;-87
2022/08/29 06:37:43;;;;;;;53.92;11.38;;;;;;;31.51;35.40;100724.28;5017689;28;20056;-88
2022/08/29 06:40:12;;;;;;;60.25;13.73;;;;;;;31.73;35.26;100732.03;5035408;28;20068;-88
2022/08/29 06:42:37;;;;;;;44.53;12.05;;;;;;;31.71;34.40;100739.84;5044140;28;20076;-88
2022/08/29 06:45:09;;;;;;;49.72;12.32;;;;;;;31.53;34.48;100735.91;5027519;28;20060;-89
2022/08/29 06:47:41;;;;;;;41.83;11.10;;;;;;;31.45;34.51;100719.13;5050659;28;20076;-88
2022/08/29 06:50:07;;;;;;;45.28;11.85;;;;;;;31.64;33.88;100741.34;5036216;28;20051;-87
2022/08/29 06:52:33;;;;;;;44.33;11.82;;;;;;;31.73;34.21;100743.13;5033121;28;20045;-88
2022/08/29 06:54:59;;;;;;;40.45;10.60;;;;;;;31.70;33.80;100732.63;5027416;28;20037;-88
2022/08/29 06:57:25;;;;;;;39.45;10.10;;;;;;;31.82;33.72;100750.78;5044515;28;20125;-86
2022/08/29 06:59:51;;;;;;;40.65;10.38;;;;;;;31.96;34.28;100746.16;5032915;28;20041;-87
2022/08/29 07:02:16;;;;;;;34.83;10.45;;;;;;;32.09;34.27;100742.59;5045876;28;20132;-86
2022/08/29 07:04:43;;;;;;;50.55;10.80;;;;;;;32.36;34.24;100746.59;5022336;28;20110;-90
2022/08/29 07:07:11;;;;;;;39.95;11.27;;;;;;;32.79;33.73;100751.94;5023454;28;20045;-88
2022/08/29 07:09:37;;;;;;;42.85;10.63;;;;;;;32.93;32.55;100751.94;5044457;28;20068;-88
2022/08/29 07:12:12;;;;;;;36.42;9.02;;;;;;;33.20;32.52;100756.69;5031804;28;20481;-90
2022/08/29 07:14:41;;;;;;;31.63;7.93;;;;;;;33.39;30.77;100754.63;5048613;28;20124;-87
2022/08/29 07:17:11;;;;;;;44.92;9.70;;;;;;;33.79;31.06;100757.66;4992235;28;20144;-89
2022/08/29 07:19:43;;;;;;;32.83;9.63;;;;;;;33.94;30.75;100755.63;5028407;28;20053;-87
2022/08/29 07:22:09;;;;;;;52.70;16.95;;;;;;;33.78;33.26;100750.41;5046574;28;20041;-88
2022/08/29 07:24:35;;;;;;;59.17;17.65;;;;;;;33.84;34.67;100765.88;5040442;28;20051;-86
2022/08/29 07:27:01;;;;;;;45.88;14.18;;;;;;;33.65;35.28;100779.19;5029786;28;20045;-89
2022/08/29 07:29:33;;;;;;;56.58;12.35;;;;;;;34.06;34.78;100778.19;5018678;28;20040;-84
2022/08/29 07:31:58;;;;;;;37.92;9.52;;;;;;;34.18;34.80;100769.28;5027575;28;20182;-87
2022/08/29 07:34:28;;;;;;;30.50;7.55;;;;;;;33.56;35.57;100775.44;5023695;28;20037;-86
2022/08/29 07:36:57;;;;;;;38.38;6.80;;;;;;;32.94;37.31;100776.72;5030257;28;20141;-85
2022/08/29 07:39:27;;;;;;;25.90;6.47;;;;;;;33.14;37.41;100786.63;5041656;28;20037;-87
2022/08/29 07:41:57;;;;;;;36.42;6.38;;;;;;;33.13;38.32;100785.00;5048999;28;20037;-86
2022/08/29 07:44:23;;;;;;;27.50;5.68;;;;;;;33.41;36.16;100784.94;5029211;28;20037;-88
2022/08/29 07:46:52;;;;;;;37.08;5.97;;;;;;;33.19;35.30;100777.34;4994141;28;20041;-85
2022/08/29 07:49:20;;;;;;;31.00;5.72;;;;;;;33.38;33.56;100764.09;5016107;28;20045;-87
2022/08/29 07:51:45;;;;;;;27.80;5.72;;;;;;;34.26;32.49;100772.13;5034423;28;20038;-87
2022/08/29 07:54:15;;;;;;;28.02;5.10;;;;;;;34.73;32.44;100773.75;4997166;28;20060;-86
2022/08/29 07:56:43;;;;;;;33.10;5.40;;;;;;;35.37;30.88;100787.31;5023885;28;20080;-84
2022/08/29 07:59:08;;;;;;;33.33;5.50;;;;;;;35.74;29.38;100783.13;5031942;28;20041;-84
2022/08/29 08:01:34;;;;;;;26.77;5.13;;;;;;;36.13;28.60;100789.72;5041672;28;20523;-83
2022/08/29 08:03:59;;;;;;;22.08;4.82;;;;;;;36.79;26.75;100757.81;5024118;28;20069;-84
2022/08/29 08:06:25;;;;;;;26.30;5.18;;;;;;;37.29;24.95;100793.50;5031785;28;20041;-84
2022/08/29 08:08:51;;;;;;;37.20;4.82;;;;;;;36.60;25.89;100778.63;4998371;28;20041;-83
2022/08/29 08:11:19;;;;;;;37.67;5.20;;;;;;;36.79;25.93;100785.81;5006568;28;20051;-84
2022/08/29 08:13:48;;;;;;;32.88;4.78;;;;;;;36.99;25.72;100776.66;5042739;28;20062;-85
2022/08/29 08:16:19;;;;;;;29.80;4.75;;;;;;;37.38;24.89;100786.69;5030819;28;20033;-87
2022/08/29 08:18:44;;;;;;;34.85;4.80;;;;;;;37.71;24.95;100776.75;5021906;28;20052;-86
2022/08/29 08:21:13;;;;;;;26.92;4.80;;;;;;;38.62;23.68;100790.97;5046733;28;20041;-83
2022/08/29 08:23:38;;;;;;;37.20;5.10;;;;;;;38.95;23.41;100790.91;5026666;28;20052;-84
2022/08/29 08:26:08;;;;;;;36.03;5.38;;;;;;;38.66;24.22;100786.28;5034494;28;20032;-84
2022/08/29 08:28:37;;;;;;;35.58;5.15;;;;;;;39.49;23.14;100789.84;5012445;28;20041;-85
2022/08/29 08:31:07;;;;;;;34.13;4.97;;;;;;;39.38;21.35;100783.88;5015153;28;20478;-84
2022/08/29 08:33:38;;;;;;;26.88;5.00;;;;;;;39.88;21.62;100760.09;5026244;28;20033;-84
2022/08/29 08:36:12;;;;;;;31.15;5.13;;;;;;;39.30;22.81;100784.00;5012720;28;20049;-86
2022/08/29 08:38:44;;;;;;;28.65;4.95;;;;;;;39.00;22.37;100782.22;5045977;28;20169;-91
2022/08/29 08:41:35;;;;;;;33.72;5.18;;;;;;;39.69;22.05;100785.25;5031643;28;20520;-90
2022/08/29 08:44:27;;;;;;;39.25;5.68;;;;;;;40.58;21.07;100788.97;5051157;28;20534;-86
2022/08/29 08:47:01;;;;;;;32.90;5.10;;;;;;;39.65;21.00;100785.13;4999485;28;20076;-85
2022/08/29 08:49:49;;;;;;;33.23;5.53;;;;;;;40.62;20.32;100782.25;5031970;28;20037;-85
2022/08/29 08:52:53;;;;;;;30.98;5.18;;;;;;;40.72;20.39;100783.75;5029639;28;20299;-86
2022/08/29 08:55:29;;;;;;;29.40;5.22;;;;;;;40.17;21.10;100769.34;5046048;28;20156;-84
2022/08/29 08:58:09;;;;;;;34.63;5.45;;;;;;;40.74;20.36;100774.94;5031822;28;20393;-82
2022/08/29 09:00:53;;;;;;;34.78;5.70;;;;;;;41.13;19.48;100782.38;5033488;28;20049;-83
2022/08/29 09:03:25;;;;;;;35.20;5.43;;;;;;;42.34;18.91;100783.41;5019098;28;20438;-85
2022/08/29 09:06:03;;;;;;;31.13;6.07;;;;;;;41.96;19.67;100784.28;5033430;28;20055;-84
2022/08/29 09:08:40;;;;;;;30.05;5.43;;;;;;;41.45;19.63;100779.50;5012724;28;20059;-84
2022/08/29 09:11:11;;;;;;;29.45;5.15;;;;;;;41.73;19.58;100778.53;5052492;28;20037;-84
2022/08/29 09:13:42;;;;;;;30.25;5.82;;;;;;;42.47;19.34;100781.22;5052593;28;20943;-84
2022/08/29 09:16:47;;;;;;;28.88;5.40;;;;;;;42.73;18.25;100786.16;5047399;28;20555;-84
2022/08/29 09:19:13;;;;;;;24.92;5.00;;;;;;;43.42;18.35;100777.56;5036039;28;20048;-83
2022/08/29 09:21:54;;;;;;;30.42;5.70;;;;;;;43.81;18.54;100763.16;5016262;28;20102;-82
2022/08/29 09:24:52;;;;;;;33.63;4.85;;;;;;;43.69;18.84;100786.03;5034209;28;20053;-84
2022/08/29 09:27:24;;;;;;;24.73;4.82;;;;;;;43.23;19.41;100774.88;5023796;28;20049;-87
2022/08/29 09:29:57;;;;;;;27.52;5.10;;;;;;;43.42;19.76;100766.25;5017093;28;20071;-85
2022/08/29 09:35:50;;;;;;;28.67;5.85;;;;;;;43.81;18.74;100760.34;5050201;28;20078;-83
2022/08/29 09:38:16;;;;;;;30.02;5.38;;;;;;;44.65;18.38;100772.19;5031147;28;20041;-83
2022/08/29 09:40:59;;;;;;;29.63;5.28;;;;;;;44.84;18.63;100778.81;5064364;28;20475;-81
2022/08/29 09:43:48;;;;;;;31.15;5.32;;;;;;;44.01;19.38;100777.16;5062096;28;20080;-82
2022/08/29 09:46:22;;;;;;;28.50;5.40;;;;;;;44.01;19.73;100760.19;5043851;28;20037;-81
2022/08/29 09:48:50;;;;;;;26.48;5.53;;;;;;;43.94;20.72;100779.88;5021776;28;20619;-90
2022/08/29 09:51:29;;;;;;;29.73;5.00;;;;;;;42.95;22.04;100787.34;5029982;28;20429;-84
2022/08/29 09:54:17;;;;;;;29.33;6.10;;;;;;;43.32;22.20;100781.09;5031614;28;20180;-83
2022/08/29 09:56:52;;;;;;;23.95;4.90;;;;;;;41.87;24.61;100792.13;5032753;28;20041;-87
2022/08/29 09:59:29;;;;;;;22.95;4.93;;;;;;;41.87;24.93;100784.47;5016036;28;20041;-83
2022/08/29 10:02:19;;;;;;;21.25;4.78;;;;;;;43.38;22.56;100782.34;5049138;28;20554;-84
2022/08/29 10:04:48;;;;;;;23.60;4.60;;;;;;;43.49;21.88;100778.88;5049959;28;20033;-85
2022/08/29 10:07:23;;;;;;;29.60;5.00;;;;;;;43.10;22.38;100781.91;5047970;28;20461;-83
2022/08/29 10:09:57;;;;;;;31.00;4.78;;;;;;;44.54;21.29;100781.81;5032545;28;20080;-82
2022/08/29 10:12:45;;;;;;;28.83;4.97;;;;;;;45.30;20.83;100789.72;5023979;28;20472;-85
2022/08/29 10:15:17;;;;;;;24.85;5.20;;;;;;;46.30;19.99;100792.22;5001777;28;20041;-84
2022/08/29 10:20:51;;;;;;;26.30;4.72;;;;;;;46.48;19.90;100781.72;5034602;28;20107;-85
2022/08/29 10:23:26;;;;;;;30.90;5.03;;;;;;;44.80;21.15;100797.81;5047569;28;20163;-85
2022/08/29 10:25:51;;;;;;;31.17;4.63;;;;;;;43.50;22.18;100777.69;5048557;28;20071;-82
2022/08/29 10:28:25;;;;;;;23.90;4.75;;;;;;;45.21;20.12;100790.06;5008684;28;20064;-82
2022/08/29 10:31:03;;;;;;;30.65;5.50;;;;;;;46.03;19.20;100783.22;5029662;28;20051;-83
2022/08/29 10:33:47;;;;;;;27.83;5.63;;;;;;;45.37;19.21;100775.56;5009611;28;20029;-83
2022/08/29 10:36:29;;;;;;;22.83;5.50;;;;;;;44.88;20.59;100777.66;5047865;28;20041;-83
2022/08/29 10:39:26;;;;;;;27.25;5.82;;;;;;;42.26;25.60;100778.78;5030913;28;20041;-83
2022/08/29 10:42:00;;;;;;;28.90;4.75;;;;;;;41.61;27.48;100779.47;5049690;28;20120;-83
2022/08/29 10:44:31;;;;;;;34.40;4.75;;;;;;;42.22;26.82;100783.59;5034143;28;20124;-83
2022/08/29 10:47:03;;;;;;;23.60;4.90;;;;;;;43.30;25.61;100783.47;5046564;28;20053;-84
2022/08/29 10:49:47;;;;;;;31.02;4.65;;;;;;;42.71;26.64;100780.06;5029124;28;20484;-83
2022/08/29 10:52:51;;;;;;;30.48;6.45;;;;;;;44.58;24.09;100779.78;5048145;28;20037;-83
2022/08/29 10:55:19;;;;;;;30.00;5.82;;;;;;;43.14;25.47;100777.94;5019405;28;20074;-83
2022/08/29 10:57:52;;;;;;;25.63;5.03;;;;;;;42.99;26.35;100781.72;5046883;28;20040;-82
2022/08/29 11:00:43;;;;;;;34.55;5.43;;;;;;;44.24;24.43;100777.81;5044370;28;20040;-83
2022/08/29 11:03:30;;;;;;;29.35;4.82;;;;;;;41.51;25.91;100774.38;5031009;28;20037;-84
2022/08/29 11:06:29;;;;;;;22.95;4.55;;;;;;;40.96;26.59;100773.47;5029402;28;20033;-87
2022/08/29 11:09:16;;;;;;;23.35;5.05;;;;;;;40.68;27.44;100751.81;5023729;28;20036;-83
2022/08/29 11:12:07;;;;;;;28.10;5.13;;;;;;;41.62;25.22;100760.53;5013470;28;20039;-82
2022/08/29 11:15:06;;;;;;;29.63;5.32;;;;;;;42.02;25.31;100762.19;4991305;28;20037;-83
2022/08/29 11:17:36;;;;;;;23.88;4.78;;;;;;;39.47;29.53;100766.88;5025037;28;20492;-83
2022/08/29 11:20:20;;;;;;;29.65;5.35;;;;;;;39.68;29.75;100773.13;5011015;28;20041;-84
2022/08/29 11:23:04;;;;;;;29.27;5.13;;;;;;;39.11;29.13;100759.28;5029602;28;20128;-85
2022/08/29 11:25:31;;;;;;;34.45;5.32;;;;;;;37.94;31.68;100764.00;5047276;28;20069;-85
2022/08/29 11:28:19;;;;;;;28.77;5.38;;;;;;;38.42;30.61;100756.13;5013350;28;20106;-84
2022/08/29 11:30:54;;;;;;;28.10;5.70;;;;;;;37.56;31.92;100759.38;5027057;28;20537;-85
2022/08/29 11:33:26;;;;;;;31.67;5.50;;;;;;;37.45;31.79;100757.28;5045947;28;20464;-84
2022/08/29 11:36:12;;;;;;;32.35;5.65;;;;;;;36.06;33.66;100748.22;5048389;28;20052;-83
2022/08/29 11:39:05;;;;;;;33.97;5.63;;;;;;;35.26;34.13;100756.88;5043917;28;20029;-83
2022/08/29 11:41:39;;;;;;;31.37;5.73;;;;;;;34.74;35.50;100750.25;5046971;28;20033;-82
2022/08/29 11:44:15;;;;;;;30.83;5.95;;;;;;;34.06;37.62;100750.31;5030651;28;20052;-82
2022/08/29 11:46:48;;;;;;;32.88;5.90;;;;;;;34.21;38.40;100755.53;5014644;28;20041;-82